• Join FlightAware (Why Join?)
  • Login
  • US Flag 
04:57PM EST


 

Airport Tracker/Info


-or-


 

Live Flight TrackerFlight Track Log ✈ QXE2633 ✈ 19-Aug-2013 ✈ KMSO - KPDX

Flight Track Log - Related Links

Times and Time Zones

All times are in EDT time to prevent confusion due to time zone crossing. See the QXE2633 flight status page for this flight to view local times or setup timezone preferences in your user account.

Time Position Orientation Groundspeed Altitude Reporting Facility
EDT Latitude Longitude Course Direction KTS MPH feet Rate Location/Type
03:31PM 46.7831 -114.7346 250° West  Level FlightAware Approximate
03:32PM 46.7667 -114.8432 270° West  Level FlightAware Approximate
03:33PM 46.7705 -114.9603 256° West  Level FlightAware Approximate
03:34PM 46.7550 -115.0702 256° West  Level FlightAware Approximate
03:35PM 46.8051 -115.1561 310° West  Level FlightAware Approximate
03:36PM 46.7908 -115.2671 256° West  Level Estimated
03:37PM 46.7948 -115.3798 273° West  Level FlightAware Approximate
03:38PM 46.7801 -115.4906 254° West  Level Estimated
03:39PM 46.7687 -115.6023 262° West  Level FlightAware Approximate
03:40PM 46.7572 -115.7139 261° West  Level FlightAware Approximate
03:41PM 46.7420 -115.8245 256° West  Level Estimated
03:42PM 46.7232 -115.9339 256° West  Level FlightAware Approximate
03:43PM 46.7043 -116.0432 256° West  Level FlightAware Approximate
03:44PM 46.6853 -116.1524 256° West  Level FlightAware Approximate
03:45PM 46.6662 -116.2616 256° West  Level FlightAware Approximate
03:46PM 46.6470 -116.3707 256° West  Level FlightAware Approximate
03:47PM 46.6276 -116.4797 256° West  Level FlightAware Approximate
03:48PM 46.6082 -116.5886 255° West  Level FlightAware Approximate
03:49PM 46.5887 -116.6974 255° West  Level FlightAware Approximate
03:50PM 46.5690 -116.8062 255° West  Level FlightAware Approximate
03:51PM 46.5493 -116.9149 255° West  Level FlightAware Approximate
03:52PM 46.5294 -117.0235 255° West  Level FlightAware Approximate
03:53PM 46.5095 -117.1320 255° West  Level FlightAware Approximate
03:54PM 46.4894 -117.2405 255° West  Level FlightAware Approximate
03:55PM 46.4693 -117.3488 255° West  Level FlightAware Approximate
03:56PM 46.4491 -117.4571 255° West  Level FlightAware Approximate
03:57PM 46.4287 -117.5653 255° West  Level FlightAware Approximate
03:58PM 46.4082 -117.6735 255° West  Level FlightAware Approximate
03:59PM 46.3877 -117.7815 255° West  Level FlightAware Approximate
04:00PM 46.3670 -117.8895 255° West  Level FlightAware Approximate
04:01PM 46.3462 -117.9974 254° West  Level FlightAware Approximate
04:02PM 46.3306 -118.1070 254° West  Level Estimated
04:03PM 46.3093 -118.2146 254° West  Level FlightAware Approximate
04:04PM 46.2879 -118.3221 254° West  Level FlightAware Approximate
04:05PM 46.2665 -118.4295 254° West  Level FlightAware Approximate
04:06PM 46.2449 -118.5369 254° West  Level FlightAware Approximate
04:07PM 46.2232 -118.6442 254° West  Level FlightAware Approximate
04:08PM 46.2015 -118.7513 254° West  Level FlightAware Approximate
04:09PM 46.1796 -118.8584 254° West  Level FlightAware Approximate
04:10PM 46.1576 -118.9654 254° West  Level FlightAware Approximate
04:11PM 46.1356 -119.0724 253° West  Level FlightAware Approximate
04:12PM 46.1134 -119.1792 253° West  Level FlightAware Approximate
04:13PM 46.0913 -119.2852 253° West  Level FlightAware Approximate
04:14PM 46.0691 -119.3911 253° West  Level FlightAware Approximate
04:15PM 46.0468 -119.4970 253° West  Level FlightAware Approximate
04:16PM 46.0244 -119.6027 253° West  Level FlightAware Approximate
04:17PM 46.0019 -119.7084 253° West  Level FlightAware Approximate
04:18PM 45.9793 -119.8140 253° West  Level FlightAware Approximate
04:19PM 45.9566 -119.9194 253° West  Level FlightAware Approximate
04:20PM 45.9360 -120.0258 255° West  Level FlightAware Approximate
04:21PM 45.9161 -120.1324 255° West  Level FlightAware Approximate
04:22PM 45.8962 -120.2389 255° West  Level FlightAware Approximate
04:23PM 45.8761 -120.3453 255° West  Level FlightAware Approximate
04:24PM 45.8560 -120.4517 255° West  Level FlightAware Approximate
04:25PM 45.8314 -120.5559 244° Southwest  Level FlightAware Approximate
04:26PM 45.7988 -120.6556 253° West  Level FlightAware Approximate
04:27PM 45.7763 -120.7608 253° West  Level FlightAware Approximate
04:28PM 45.7537 -120.8660 253° West  Level FlightAware Approximate
04:29PM 45.7299 -120.9705 252° West  Level FlightAware Approximate
04:30PM 45.7058 -121.0749 252° West  Level FlightAware Approximate
04:31PM 45.6922 -121.1815 250° West  Level FlightAware Approximate
04:32PM 45.6664 -121.2850 250° West  Level FlightAware Approximate
04:33PM 45.6405 -121.3883 250° West  Level FlightAware Approximate
04:34PM 45.6136 -121.4910 240° Southwest  Level FlightAware Approximate
04:35PM 45.5780 -121.5879 250° West  Level FlightAware Approximate
04:36PM 45.5522 -121.6911 250° West  Level FlightAware Approximate
04:37PM 45.5279 -121.7940 248° West  Level FlightAware Approximate
04:38PM 45.5009 -121.8964 250° West  Level FlightAware Approximate
04:39PM 45.5169 -122.0029 277° West  Level FlightAware Approximate
04:40PM 45.5269 -122.1116 277° West  Level FlightAware Approximate
04:41PM 45.5445 -122.2169 295° West  Level FlightAware Approximate
04:42PM 45.5500 -122.3248 270° West  Level FlightAware Approximate
04:43PM 45.5667 -122.4220 270° West  Level FlightAware Approximate
04:44PM 45.5758 -122.5303 282° West  Level FlightAware Approximate
04:45PM 45.5833 -122.5833 282° West  Level FlightAware Approximate
04:46PM 45.5887 -122.5969 282° West  Level Estimated
04:47PM 45.5887 -122.5969 282° West  Level Estimated
04:48PM 45.5887 -122.5969 282° West  Level Estimated
04:49PM 45.5887 -122.5969 282° West  Level Estimated
04:50PM 45.5887 -122.5969 282° West  Level Estimated
04:51PM 45.5887 -122.5969 90° East  Level Estimated
04:52PM 45.5887 -122.5969 90° East  Level Estimated
04:53PM 45.5887 -122.5969 90° East  Level Estimated
04:54PM 45.5887 -122.5969 90° East  Level Estimated
04:55PM 45.5887 -122.5969 90° East  Level Estimated
04:56PM 45.5887 -122.5969 90° East  Level Estimated
04:57PM 45.5887 -122.5969 90° East  Level Estimated
04:58PM 45.5887 -122.5969 90° East  Level Estimated
04:59PM 45.5887 -122.5969 90° East  Level Estimated
05:00PM 45.5887 -122.5969 90° East  Level Estimated